CPX262 Details

Departure: General Edward Lawrence Logan International Airport (KBOS)
Arrival: Kansas City International Airport (KMCI) at N/A
Route: HYLND5 HYLND CAM Q822 GONZZ Q29 DORET DJB J60 JOT J26 IRK BQS6
Notes: METROAIR CARGO SUPPORT


Current Weather Information
KBOS 251054Z 01008KT 10SM FEW025 FEW055 18/13 A3031 RMK AO2 SLP263 T01780128
KMCI 251053Z 12015KT 10SM OVC015 20/16 A2989 RMK AO2 SLP113 T02000161